Bookmark and Share
Track history (hours):
 

Elsa

More information available from US FCC via Universal Licensing System and Coast Guard Vessel Documentation Center.

Last reported at 2014-Apr-16 09:29 UTC. Time now 2014-Apr-20 15:59 UTC.
Position N 33°43' W 118°16'.

Length 18 m.

Type: Tug. MMSI: 366949020.

NotesDate/timePositionNaut miles runAvg speedWind from/ knotsBaromVisibWave heightAir tempDewpointWater temp
2014-Apr-16 09:29N 33°43' W 118°16'  
2014-Apr-12 02:32N 33°43' W 118°15'1 0.0
2014-Apr-10 16:26N 33°44' W 118°16'0 0.0
2014-Apr-10 15:33N 33°44' W 118°16'1 0.0
2014-Apr-09 07:30N 33°44' W 118°16'5 5.1
2014-Apr-09 06:26N 33°44' W 118°09'3 1.1
2014-Apr-09 03:22N 33°44' W 118°13'1 0.1
2014-Apr-08 18:07N 33°45' W 118°13'0 0.2
2014-Apr-08 17:24N 33°45' W 118°13'3 3.0
2014-Apr-08 16:29N 33°44' W 118°16'0 0.0
2014-Apr-07 09:33N 33°44' W 118°16'2 2.4
2014-Apr-07 08:33N 33°44' W 118°13'0 0.0
2014-Apr-07 07:33N 33°44' W 118°13'0 0.0
2014-Apr-07 06:17N 33°44' W 118°13'0 0.5
2014-Apr-07 05:32N 33°44' W 118°13'0 0.0
2014-Apr-07 00:33N 33°44' W 118°13'1 0.6
2014-Apr-06 23:34N 33°45' W 118°12'0 0.3
2014-Apr-06 22:33N 33°45' W 118°12'0 0.0
2014-Apr-06 21:33N 33°45' W 118°12'  

Dump ship's entire track history

sailing weather and tide predictions

Elsa — WDB7862 — position and weather